createdAt,value
2022-09-15T00:01:21.859Z,78.54
2022-09-15T00:03:50.743Z,78.47
2022-09-15T00:06:21.500Z,78.72
2022-09-15T00:08:50.015Z,78.96
2022-09-15T00:11:20.540Z,78.81
2022-09-15T00:13:49.451Z,78.61
2022-09-15T00:16:19.235Z,78.55
2022-09-15T00:18:48.434Z,78.88
2022-09-15T00:21:20.470Z,78.19
2022-09-15T00:23:51.096Z,78.33
2022-09-15T00:26:21.720Z,78.34
2022-09-15T00:28:50.436Z,78.21
2022-09-15T00:31:21.306Z,78.26
2022-09-15T00:33:50.336Z,78.37
2022-09-15T00:36:19.494Z,78.50
2022-09-15T00:38:49.512Z,78.16
2022-09-15T00:41:21.085Z,78.61
2022-09-15T00:43:53.111Z,78.19
2022-09-15T00:46:23.214Z,78.27
2022-09-15T00:48:56.915Z,78.79
2022-09-15T00:51:31.720Z,78.81
2022-09-15T00:54:04.158Z,78.17
2022-09-15T00:56:35.234Z,78.60
2022-09-15T00:59:07.034Z,78.12
2022-09-15T01:01:35.916Z,78.53
2022-09-15T01:04:04.740Z,78.88
2022-09-15T01:06:37.308Z,78.81
2022-09-15T01:09:19.398Z,78.53
2022-09-15T01:11:47.919Z,78.93
2022-09-15T01:14:16.679Z,78.65
2022-09-15T01:17:10.035Z,78.47
2022-09-15T01:20:11.663Z,78.27
2022-09-15T01:22:54.083Z,79.03
2022-09-15T01:25:41.593Z,78.54
2022-09-15T01:28:26.422Z,78.72
2022-09-15T01:31:02.173Z,78.80
2022-09-15T01:33:38.811Z,79.00
2022-09-15T01:36:14.317Z,78.84
2022-09-15T01:38:52.375Z,78.85
2022-09-15T01:41:26.083Z,78.98
2022-09-15T01:44:00.614Z,79.18
2022-09-15T01:46:36.476Z,78.74
2022-09-15T01:49:08.724Z,78.84
2022-09-15T01:51:40.750Z,78.63
2022-09-15T01:54:10.229Z,79.20
2022-09-15T01:56:41.816Z,79.69
2022-09-15T01:59:10.541Z,79.33
2022-09-15T02:01:45.402Z,79.19
2022-09-15T02:04:19.457Z,79.13
2022-09-15T02:06:54.489Z,78.57
2022-09-15T02:09:26.675Z,78.91
2022-09-15T02:12:03.576Z,79.04
2022-09-15T02:14:44.160Z,79.54
2022-09-15T02:17:19.104Z,78.75
2022-09-15T02:19:51.216Z,79.10
2022-09-15T02:22:24.486Z,79.24
2022-09-15T02:24:59.108Z,78.95
2022-09-15T02:27:33.016Z,79.55
2022-09-15T02:30:06.158Z,78.87
2022-09-15T02:32:38.494Z,79.59
2022-09-15T02:35:10.194Z,79.59
2022-09-15T02:37:39.671Z,79.11
2022-09-15T02:40:09.472Z,79.17
2022-09-15T02:42:39.300Z,79.54
2022-09-15T02:45:08.859Z,78.91
2022-09-15T02:47:38.677Z,79.03
2022-09-15T02:50:08.345Z,79.39
2022-09-15T02:52:36.884Z,79.10
2022-09-15T02:55:05.921Z,79.09
2022-09-15T02:57:34.386Z,78.88
2022-09-15T03:00:16.093Z,78.99
2022-09-15T03:02:48.412Z,79.30
2022-09-15T03:05:18.443Z,79.15
2022-09-15T03:07:46.831Z,79.51
2022-09-15T03:10:16.259Z,78.83
2022-09-15T03:12:46.365Z,78.94
2022-09-15T03:15:17.683Z,79.07
2022-09-15T03:17:48.568Z,79.28
2022-09-15T03:20:18.922Z,78.76
2022-09-15T03:22:47.304Z,78.88
2022-09-15T03:25:15.937Z,79.48
2022-09-15T03:27:44.328Z,79.06
2022-09-15T03:30:13.840Z,79.42
2022-09-15T03:32:42.496Z,79.37
2022-09-15T03:35:12.363Z,78.83
2022-09-15T03:37:40.954Z,79.55
2022-09-15T03:40:11.420Z,79.71
2022-09-15T03:42:39.870Z,79.45
2022-09-15T03:45:09.197Z,79.15
2022-09-15T03:47:37.534Z,79.25
2022-09-15T03:50:06.935Z,79.25
2022-09-15T03:52:36.745Z,79.04
2022-09-15T03:55:05.525Z,79.19
2022-09-15T03:57:34.016Z,79.89
2022-09-15T04:00:02.391Z,79.13
2022-09-15T04:02:33.234Z,78.73
2022-09-15T04:05:02.376Z,78.09
2022-09-15T04:07:32.147Z,78.06
2022-09-15T04:10:02.575Z,77.30
2022-09-15T04:12:32.612Z,77.66
2022-09-15T04:15:03.136Z,77.66
2022-09-15T04:17:32.545Z,77.09
2022-09-15T04:20:01.092Z,77.29
2022-09-15T04:22:32.116Z,76.97
2022-09-15T04:25:01.910Z,76.76
2022-09-15T04:27:34.594Z,76.45
2022-09-15T04:30:03.415Z,76.62
2022-09-15T04:32:33.023Z,75.89
2022-09-15T04:35:01.381Z,76.21
2022-09-15T04:37:31.707Z,76.66
2022-09-15T04:40:02.257Z,76.61
2022-09-15T04:42:32.299Z,76.72
2022-09-15T04:45:00.718Z,76.83
2022-09-15T04:47:29.545Z,76.38
2022-09-15T04:49:57.903Z,77.01
2022-09-15T04:52:26.542Z,76.42
2022-09-15T04:54:54.935Z,77.09
2022-09-15T04:57:24.786Z,77.31
2022-09-15T04:59:53.115Z,77.30
2022-09-15T05:02:21.563Z,77.30
2022-09-15T05:04:51.678Z,76.80
2022-09-15T05:07:20.171Z,77.27
2022-09-15T05:09:48.601Z,76.47
2022-09-15T05:12:17.598Z,76.97
2022-09-15T05:14:47.327Z,76.39
2022-09-15T05:17:15.848Z,77.65
2022-09-15T05:19:44.283Z,76.79
2022-09-15T05:22:12.724Z,77.02
2022-09-15T05:24:41.096Z,77.21
2022-09-15T05:27:09.485Z,76.71
2022-09-15T05:29:38.499Z,77.02
2022-09-15T05:32:08.339Z,77.68
2022-09-15T05:34:36.755Z,77.77
2022-09-15T05:37:05.533Z,77.40
2022-09-15T05:39:34.044Z,77.27
2022-09-15T05:42:02.395Z,76.91
2022-09-15T05:44:31.688Z,77.42
2022-09-15T05:47:00.356Z,77.36
2022-09-15T05:49:30.434Z,77.47
2022-09-15T05:51:58.958Z,76.75
2022-09-15T05:54:27.950Z,76.58
2022-09-15T05:56:56.344Z,77.25
2022-09-15T05:59:24.946Z,76.89
2022-09-15T06:01:53.486Z,76.89
2022-09-15T08:35:00.840Z,78.43
2022-09-15T08:37:29.441Z,77.76
2022-09-15T08:39:57.893Z,77.78
2022-09-15T08:42:29.242Z,77.27
2022-09-15T08:45:04.192Z,77.19
2022-09-15T08:47:37.259Z,77.56
2022-09-15T08:50:15.844Z,77.70
2022-09-15T08:52:49.424Z,77.60
2022-09-15T08:55:29.209Z,78.03
2022-09-15T08:57:57.648Z,77.69
2022-09-15T09:00:26.300Z,78.00
2022-09-15T09:03:09.244Z,77.12
2022-09-15T09:05:51.003Z,77.47
2022-09-15T09:08:40.806Z,76.63
2022-09-15T09:11:22.367Z,76.07
2022-09-15T09:14:01.272Z,76.04
2022-09-15T09:16:42.456Z,76.01
2022-09-15T09:19:31.358Z,75.87
2022-09-15T09:22:08.252Z,75.98
2022-09-15T09:24:42.263Z,76.48
2022-09-15T09:27:14.333Z,74.83
2022-09-15T09:29:49.752Z,76.01
2022-09-15T09:32:22.086Z,75.35
2022-09-15T09:35:02.111Z,75.52
2022-09-15T09:37:34.884Z,75.89
2022-09-15T09:40:03.811Z,76.29
2022-09-15T09:42:37.283Z,75.31
2022-09-15T09:45:07.724Z,75.70
2022-09-15T09:47:37.640Z,75.34
2022-09-15T09:50:33.846Z,74.08
2022-09-15T09:53:19.584Z,74.35
2022-09-15T09:55:48.109Z,74.84
2022-09-15T09:58:20.821Z,74.47
2022-09-15T10:00:50.403Z,74.47
2022-09-15T10:03:21.415Z,74.19
2022-09-15T10:06:03.701Z,74.10
2022-09-15T10:08:34.199Z,74.55
2022-09-15T10:11:07.032Z,73.95
2022-09-15T10:13:36.806Z,74.36
2022-09-15T10:16:07.868Z,74.60
2022-09-15T10:18:39.128Z,74.34
2022-09-15T10:21:11.168Z,73.48
2022-09-15T10:23:41.139Z,73.74
2022-09-15T10:26:32.232Z,73.96
2022-09-15T10:29:18.024Z,73.44
2022-09-15T10:31:47.259Z,74.60
2022-09-15T10:34:37.483Z,73.47
2022-09-15T10:37:16.959Z,74.18
2022-09-15T10:39:54.444Z,73.43
2022-09-15T10:42:50.487Z,73.69
2022-09-15T10:45:26.126Z,73.84
2022-09-15T10:48:39.327Z,72.95
2022-09-15T10:51:22.896Z,73.49
2022-09-15T10:54:06.519Z,72.86
2022-09-15T10:56:42.779Z,72.80
2022-09-15T10:59:38.692Z,72.35
2022-09-15T11:02:32.423Z,72.89
2022-09-15T11:05:20.586Z,72.53
2022-09-15T11:08:02.987Z,72.07
2022-09-15T11:10:39.024Z,72.27
2022-09-15T11:13:18.391Z,71.84
2022-09-15T11:15:58.859Z,72.22
2022-09-15T11:18:48.667Z,71.57
2022-09-15T11:21:24.554Z,72.47
2022-09-15T11:24:14.477Z,72.58
2022-09-15T11:26:46.994Z,72.05
2022-09-15T11:29:24.017Z,71.91
2022-09-15T11:31:55.346Z,71.63
2022-09-15T11:34:29.264Z,71.92
2022-09-15T11:37:04.376Z,72.28
2022-09-15T11:39:40.140Z,71.69
2022-09-15T11:42:12.949Z,71.68
2022-09-15T11:44:46.236Z,72.68
2022-09-15T11:47:26.042Z,71.87
2022-09-15T11:49:58.353Z,72.33
2022-09-15T11:52:41.206Z,72.02
2022-09-15T11:55:26.266Z,71.65
2022-09-15T11:58:02.588Z,72.16
2022-09-15T12:00:32.809Z,71.89
2022-09-15T12:03:15.039Z,71.01
2022-09-15T12:05:46.411Z,71.53
2022-09-15T12:08:23.831Z,71.38
2022-09-15T12:10:58.160Z,71.36
2022-09-15T12:13:28.681Z,71.77
2022-09-15T12:16:04.328Z,71.49
2022-09-15T12:18:46.892Z,71.69
2022-09-15T12:21:30.767Z,71.32
2022-09-15T12:24:07.880Z,71.20
2022-09-15T12:26:40.793Z,71.40
2022-09-15T12:29:34.997Z,70.45
2022-09-15T12:32:23.888Z,70.37
2022-09-15T12:35:13.386Z,70.59
2022-09-15T12:37:45.784Z,70.56
2022-09-15T12:40:37.742Z,69.79
2022-09-15T12:43:21.511Z,70.19
2022-09-15T12:46:00.357Z,70.54
2022-09-15T12:48:34.656Z,70.77
2022-09-15T12:51:08.754Z,70.73
2022-09-15T12:53:46.982Z,71.11
2022-09-15T12:56:26.346Z,70.98
2022-09-15T12:59:05.933Z,71.03
2022-09-15T13:01:49.369Z,70.02
2022-09-15T13:04:57.730Z,69.68
2022-09-15T13:07:39.395Z,70.05
2022-09-15T13:10:28.524Z,67.58
2022-09-15T13:13:07.207Z,68.74
2022-09-15T13:15:38.365Z,68.24
2022-09-15T13:18:07.880Z,68.51
2022-09-15T13:20:42.205Z,67.52
2022-09-15T13:23:15.225Z,67.50
2022-09-15T13:25:47.164Z,68.04
2022-09-15T13:28:17.587Z,68.93
2022-09-15T13:30:59.706Z,68.75
2022-09-15T13:39:50.270Z,69.93
2022-09-15T13:42:31.729Z,69.81
2022-09-15T13:45:26.344Z,69.32
2022-09-15T13:48:12.275Z,69.44
2022-09-15T13:50:46.511Z,70.02
2022-09-15T13:53:35.129Z,69.61
2022-09-15T13:56:08.460Z,69.55
2022-09-15T14:01:26.473Z,70.07
2022-09-15T14:03:58.482Z,70.29
2022-09-15T14:06:30.442Z,69.45
2022-09-15T14:09:05.662Z,69.75
2022-09-15T14:11:36.596Z,69.52
2022-09-15T14:14:10.852Z,69.66
2022-09-15T14:16:41.085Z,69.92
2022-09-15T14:19:33.804Z,69.61
2022-09-15T14:22:03.648Z,69.70
2022-09-15T14:24:34.129Z,69.62
2022-09-15T14:27:10.210Z,69.60
2022-09-15T14:29:42.863Z,68.87
2022-09-15T14:32:15.723Z,69.12
2022-09-15T14:34:45.852Z,69.08
2022-09-15T14:37:21.582Z,69.03
2022-09-15T14:39:56.704Z,68.04
2022-09-15T14:42:30.790Z,68.43
2022-09-15T14:48:03.497Z,68.18
2022-09-15T14:50:33.690Z,68.38
2022-09-15T14:53:05.544Z,68.68
2022-09-15T14:55:38.750Z,68.86
2022-09-15T14:58:13.965Z,68.36
2022-09-15T15:00:51.707Z,68.39
2022-09-15T15:03:28.144Z,68.08
2022-09-15T15:06:02.928Z,67.58
2022-09-15T15:08:42.201Z,67.80
2022-09-15T15:11:16.824Z,67.26
2022-09-15T15:13:48.427Z,67.72
2022-09-15T15:16:23.274Z,66.55
2022-09-15T15:18:52.222Z,66.78
2022-09-15T15:21:38.450Z,66.08
2022-09-15T15:24:18.531Z,66.55
2022-09-15T15:26:50.295Z,66.08
2022-09-15T15:29:43.212Z,65.84
2022-09-15T15:32:17.599Z,65.66
2022-09-15T15:34:51.015Z,65.39
2022-09-15T15:37:28.196Z,64.88
2022-09-15T15:39:58.319Z,65.24
2022-09-15T15:42:29.794Z,64.85
2022-09-15T15:45:03.475Z,64.12
2022-09-15T15:47:36.479Z,63.96
2022-09-15T15:50:13.623Z,63.81
2022-09-15T15:52:43.827Z,64.04
2022-09-15T15:55:16.096Z,63.49
2022-09-15T15:57:47.889Z,63.64
2022-09-15T16:00:22.394Z,63.54
2022-09-15T16:02:51.886Z,64.01
2022-09-15T16:05:22.211Z,63.75
2022-09-15T16:07:53.080Z,63.28
2022-09-15T16:10:24.221Z,63.23
2022-09-15T16:12:54.212Z,63.16
2022-09-15T16:15:23.007Z,62.89
2022-09-15T16:17:51.860Z,63.28
2022-09-15T16:20:20.907Z,63.29
2022-09-15T16:22:49.415Z,63.71
2022-09-15T16:25:22.846Z,63.37
2022-09-15T16:27:51.252Z,63.23
2022-09-15T16:30:21.028Z,63.44
2022-09-15T16:32:49.432Z,64.23
2022-09-15T16:35:26.109Z,64.02
2022-09-15T16:37:54.564Z,64.78
2022-09-15T16:40:22.973Z,64.81
2022-09-15T16:42:51.443Z,65.35
2022-09-15T16:45:25.953Z,64.83
2022-09-15T16:47:54.365Z,64.68
2022-09-15T16:50:22.764Z,64.42
2022-09-15T16:52:51.795Z,64.30
2022-09-15T16:55:31.400Z,64.29
2022-09-15T16:58:01.139Z,64.99
2022-09-15T17:00:32.875Z,64.87
2022-09-15T17:03:01.546Z,65.02
2022-09-15T17:05:33.897Z,64.99
2022-09-15T17:08:03.107Z,64.53
2022-09-15T17:10:31.633Z,64.76
2022-09-15T17:13:00.338Z,64.43
2022-09-15T17:15:31.954Z,64.46
2022-09-15T17:18:00.335Z,64.82
2022-09-15T17:20:29.035Z,64.77
2022-09-15T17:22:57.955Z,65.44
2022-09-15T17:25:29.399Z,65.24
2022-09-15T17:27:58.792Z,64.76
2022-09-15T17:30:31.636Z,64.92
2022-09-15T17:33:04.649Z,65.18
2022-09-15T17:35:35.274Z,64.58
2022-09-15T17:38:04.263Z,64.52
2022-09-15T17:40:33.788Z,65.10
2022-09-15T17:43:02.570Z,64.48
2022-09-15T17:45:35.763Z,64.81
2022-09-15T17:48:05.560Z,64.97
2022-09-15T17:50:35.896Z,64.54
2022-09-15T17:53:04.451Z,64.61
2022-09-15T17:55:34.384Z,64.56
2022-09-15T17:58:03.925Z,64.09
2022-09-15T18:00:35.938Z,64.26
2022-09-15T18:03:17.174Z,64.23
2022-09-15T18:05:45.840Z,64.46
2022-09-15T18:08:14.500Z,64.88
2022-09-15T18:10:42.912Z,65.04
2022-09-15T18:13:15.013Z,65.50
2022-09-15T18:15:45.053Z,65.14
2022-09-15T18:18:15.167Z,65.48
2022-09-15T18:20:44.202Z,65.36
2022-09-15T18:23:17.621Z,65.00
2022-09-15T18:25:47.086Z,65.33
2022-09-15T18:28:16.388Z,65.81
2022-09-15T18:30:48.772Z,66.18
2022-09-15T18:33:19.920Z,65.72
2022-09-15T18:35:49.430Z,66.09
2022-09-15T18:38:18.859Z,66.54
2022-09-15T18:40:50.818Z,66.03
2022-09-15T18:43:19.288Z,66.58
2022-09-15T18:45:50.488Z,66.24
2022-09-15T18:48:19.680Z,66.32
2022-09-15T18:50:48.225Z,66.25
2022-09-15T18:53:16.739Z,66.52
2022-09-15T18:55:45.247Z,66.37
2022-09-15T18:58:14.069Z,66.47
2022-09-15T19:00:42.723Z,67.13
2022-09-15T19:03:14.300Z,66.63
2022-09-15T19:05:43.067Z,66.54
2022-09-15T19:08:11.599Z,66.63
2022-09-15T19:10:43.142Z,66.52
2022-09-15T19:13:14.295Z,67.96
2022-09-15T19:15:44.030Z,66.68
2022-09-15T19:18:14.106Z,67.06
2022-09-15T19:20:42.576Z,67.15
2022-09-15T19:23:11.281Z,67.42
2022-09-15T19:25:42.792Z,67.17
2022-09-15T19:28:11.554Z,68.15
2022-09-15T19:30:40.238Z,68.18
2022-09-15T19:33:08.650Z,68.54
2022-09-15T19:35:42.899Z,68.68
2022-09-15T19:38:11.368Z,68.50
2022-09-15T19:40:39.966Z,68.90
2022-09-15T19:43:08.383Z,68.66
2022-09-15T19:45:36.702Z,68.81
2022-09-15T19:48:05.389Z,69.21
2022-09-15T19:50:33.879Z,69.42
2022-09-15T19:53:03.730Z,68.68
2022-09-15T19:55:34.459Z,69.80
2022-09-15T19:58:02.924Z,69.76
2022-09-15T20:00:31.613Z,69.75
2022-09-15T20:03:00.291Z,69.69
2022-09-15T20:05:28.670Z,70.33
2022-09-15T20:07:59.181Z,70.08
2022-09-15T20:10:28.947Z,70.56
2022-09-15T20:12:57.330Z,69.93
2022-09-15T20:15:25.743Z,70.80
2022-09-15T20:17:54.309Z,70.07
2022-09-15T20:20:22.615Z,70.70
2022-09-15T20:22:51.195Z,70.44
2022-09-15T20:25:20.092Z,70.13
2022-09-15T20:27:50.005Z,71.03
2022-09-15T20:30:21.793Z,70.78
2022-09-15T20:32:50.420Z,71.36
2022-09-15T20:35:18.944Z,70.83
2022-09-15T20:37:47.508Z,70.57
2022-09-15T20:40:16.293Z,71.17
2022-09-15T20:42:44.925Z,70.33
2022-09-15T20:45:15.583Z,70.38
2022-09-15T20:47:44.027Z,70.39
2022-09-15T20:50:12.536Z,70.78
2022-09-15T20:52:41.048Z,71.04
2022-09-15T20:55:10.474Z,70.80
2022-09-15T20:57:39.481Z,71.27
2022-09-15T21:00:10.209Z,71.15
2022-09-15T21:02:40.278Z,70.89
2022-09-15T21:05:09.515Z,71.19
2022-09-15T21:07:38.090Z,70.97
2022-09-15T21:10:08.223Z,70.57
2022-09-15T21:12:36.703Z,71.15
2022-09-15T21:15:05.869Z,70.97
2022-09-15T21:17:34.442Z,71.22
2022-09-15T21:20:04.869Z,71.89
2022-09-15T21:22:33.336Z,72.28
2022-09-15T21:25:01.769Z,71.57
2022-09-15T21:27:32.125Z,72.28
2022-09-15T21:30:00.680Z,73.03
2022-09-15T21:32:29.934Z,72.82
2022-09-15T21:34:58.401Z,72.68
2022-09-15T21:37:28.776Z,73.12
2022-09-15T21:39:57.358Z,72.72
2022-09-15T21:42:26.184Z,72.97
2022-09-15T21:44:54.788Z,72.87
2022-09-15T21:47:23.409Z,73.41
2022-09-15T21:49:52.611Z,72.95
2022-09-15T21:52:21.615Z,73.39
2022-09-15T21:54:52.138Z,73.06
2022-09-15T21:57:20.813Z,72.68
2022-09-15T21:59:49.221Z,72.92
2022-09-15T22:02:19.620Z,73.18
2022-09-15T22:04:48.454Z,72.95
2022-09-15T22:07:19.773Z,72.67
2022-09-15T22:09:48.456Z,73.10
2022-09-15T22:12:18.435Z,73.36
2022-09-15T22:14:46.949Z,73.32
2022-09-15T22:17:15.956Z,72.99
2022-09-15T22:19:44.567Z,73.23
2022-09-15T22:22:13.118Z,72.86
2022-09-15T22:24:41.696Z,73.04
2022-09-15T22:27:10.214Z,73.46
2022-09-15T22:29:40.078Z,72.96
2022-09-15T22:32:08.658Z,72.97
2022-09-15T22:34:37.107Z,73.44
2022-09-15T22:37:05.558Z,73.32
2022-09-15T22:39:57.508Z,73.01
2022-09-15T22:42:22.694Z,72.89
2022-09-15T22:44:52.811Z,73.17
2022-09-15T22:47:21.541Z,73.29
2022-09-15T22:49:49.960Z,72.81
2022-09-15T22:52:18.541Z,73.20
2022-09-15T22:54:47.256Z,73.02
2022-09-15T22:57:15.745Z,73.11
2022-09-15T22:59:44.292Z,73.10
2022-09-15T23:02:14.248Z,72.98
2022-09-15T23:04:42.923Z,73.79
2022-09-15T23:07:11.364Z,73.51
2022-09-15T23:09:40.344Z,73.72
2022-09-15T23:12:10.116Z,73.90
2022-09-15T23:14:38.551Z,73.90
2022-09-15T23:17:07.135Z,73.41
2022-09-15T23:19:37.017Z,73.82
2022-09-15T23:22:05.515Z,73.87
2022-09-15T23:24:34.751Z,73.75
2022-09-15T23:27:04.156Z,74.09
2022-09-15T23:29:32.621Z,74.16
2022-09-15T23:32:01.288Z,73.84
2022-09-15T23:34:29.860Z,73.77
2022-09-15T23:36:59.881Z,73.94
2022-09-15T23:39:28.579Z,73.88
2022-09-15T23:41:57.064Z,73.83
2022-09-15T23:44:25.602Z,73.53
2022-09-15T23:46:54.294Z,73.43
2022-09-15T23:49:22.899Z,73.74
2022-09-15T23:51:51.375Z,73.86
2022-09-15T23:54:21.295Z,73.84
2022-09-15T23:56:49.818Z,73.79
2022-09-15T23:59:18.437Z,73.55
